createdAt,value
2017-02-13T00:00:31.603Z,96.82
2017-02-13T00:01:13.180Z,96.82
2017-02-13T00:01:53.816Z,96.73
2017-02-13T00:02:34.363Z,96.73
2017-02-13T00:03:19.711Z,96.44
2017-02-13T00:04:00.315Z,96.73
2017-02-13T00:04:40.893Z,96.54
2017-02-13T00:05:21.450Z,96.73
2017-02-13T00:06:02.122Z,96.82
2017-02-13T00:06:43.731Z,96.73
2017-02-13T00:07:24.347Z,96.91
2017-02-13T00:08:04.895Z,96.91
2017-02-13T00:08:45.549Z,96.82
2017-02-13T00:09:26.152Z,96.82
2017-02-13T00:10:06.751Z,96.91
2017-02-13T00:10:47.407Z,96.54
2017-02-13T00:11:28.072Z,96.82
2017-02-13T00:12:08.701Z,96.54
2017-02-13T00:12:49.365Z,96.73
2017-02-13T00:13:30.036Z,96.82
2017-02-13T00:14:10.687Z,97.29
2017-02-13T00:14:52.371Z,97.39
2017-02-13T00:15:32.986Z,97.39
2017-02-13T00:16:13.653Z,97.39
2017-02-13T00:16:54.306Z,97.29
2017-02-13T00:17:34.958Z,97.29
2017-02-13T00:18:15.625Z,97.39
2017-02-13T00:18:57.291Z,97.39
2017-02-13T00:19:37.948Z,97.29
2017-02-13T00:20:18.606Z,97.29
2017-02-13T00:20:59.253Z,97.29
2017-02-13T00:21:40.928Z,97.01
2017-02-13T00:22:21.572Z,97.2
2017-02-13T00:23:03.148Z,97.2
2017-02-13T00:23:43.777Z,97.1
2017-02-13T00:24:24.441Z,97.39
2017-02-13T00:25:05.000Z,97.1
2017-02-13T00:25:46.574Z,97.48
2017-02-13T00:26:27.219Z,97.29
2017-02-13T00:27:07.785Z,96.91
2017-02-13T00:27:49.372Z,97.01
2017-02-13T00:28:30.000Z,97.01
2017-02-13T00:29:10.551Z,97.1
2017-02-13T00:29:52.139Z,97.01
2017-02-13T00:30:32.801Z,97.1
2017-02-13T00:31:14.479Z,97.01
2017-02-13T00:31:57.077Z,97.67
2017-02-13T00:32:37.729Z,97.2
2017-02-13T00:33:18.374Z,97.29
2017-02-13T00:34:00.059Z,97.29
2017-02-13T00:34:40.660Z,97.29
2017-02-13T00:35:21.243Z,97.39
2017-02-13T00:36:01.804Z,97.2
2017-02-13T00:36:43.490Z,97.29
2017-02-13T00:37:24.076Z,97.48
2017-02-13T00:38:05.701Z,97.58
2017-02-13T00:38:46.256Z,97.77
2017-02-13T00:39:26.911Z,97.01
2017-02-13T00:40:07.512Z,97.2
2017-02-13T00:40:48.108Z,97.86
2017-02-13T00:41:28.661Z,97.1
2017-02-13T00:42:09.346Z,97.29
2017-02-13T00:42:50.942Z,97.29
2017-02-13T00:43:31.534Z,97.86
2017-02-13T00:44:12.104Z,97.39
2017-02-13T00:44:52.748Z,97.2
2017-02-13T00:45:33.351Z,97.39
2017-02-13T00:46:14.972Z,97.58
2017-02-13T00:46:55.541Z,97.39
2017-02-13T00:47:36.177Z,97.1
2017-02-13T00:48:18.828Z,97.2
2017-02-13T00:48:59.419Z,97.29
2017-02-13T00:49:39.975Z,96.91
2017-02-13T00:50:20.659Z,97.01
2017-02-13T00:51:01.338Z,97.29
2017-02-13T00:51:41.932Z,97.01
2017-02-13T00:52:22.498Z,97.86
2017-02-13T00:53:03.152Z,98.14
2017-02-13T00:53:43.741Z,97.86
2017-02-13T00:54:24.355Z,97.86
2017-02-13T00:55:04.995Z,97.58
2017-02-13T00:55:45.640Z,97.96
2017-02-13T00:56:26.293Z,97.67
2017-02-13T00:57:06.966Z,97.86
2017-02-13T00:57:47.605Z,97.77
2017-02-13T00:58:28.256Z,97.67
2017-02-13T00:59:08.823Z,97.67
2017-02-13T00:59:49.479Z,98.14
2017-02-13T01:00:30.174Z,97.67
2017-02-13T01:01:11.791Z,97.67
2017-02-13T01:01:52.346Z,97.86
2017-02-13T01:02:33.020Z,97.86
2017-02-13T01:03:14.627Z,97.58
2017-02-13T01:03:55.222Z,97.86
2017-02-13T01:04:35.875Z,97.58
2017-02-13T01:05:16.528Z,97.96
2017-02-13T01:05:57.182Z,97.58
2017-02-13T01:06:38.854Z,97.58
2017-02-13T01:07:20.432Z,97.58
2017-02-13T01:08:01.085Z,97.58
2017-02-13T01:08:41.738Z,97.58
2017-02-13T01:09:22.290Z,97.58
2017-02-13T01:10:02.944Z,97.58
2017-02-13T01:10:43.594Z,97.67
2017-02-13T01:11:24.148Z,97.86
2017-02-13T01:12:04.809Z,97.86
2017-02-13T01:12:45.452Z,97.48
2017-02-13T01:13:26.003Z,97.86
2017-02-13T01:14:08.610Z,97.58
2017-02-13T01:14:51.299Z,97.96
2017-02-13T01:15:31.852Z,97.58
2017-02-13T01:16:12.530Z,97.58
2017-02-13T01:16:54.207Z,98.14
2017-02-13T01:17:35.866Z,98.14
2017-02-13T01:18:17.457Z,97.96
2017-02-13T01:18:58.100Z,98.24
2017-02-13T01:19:40.743Z,98.05
2017-02-13T01:20:22.357Z,98.24
2017-02-13T01:21:02.917Z,98.14
2017-02-13T01:21:43.575Z,97.77
2017-02-13T01:22:24.978Z,97.86
2017-02-13T01:23:06.620Z,98.24
2017-02-13T01:23:47.184Z,98.14
2017-02-13T01:24:27.863Z,97.96
2017-02-13T01:25:08.491Z,98.05
2017-02-13T01:26:02.079Z,97.96
2017-02-13T01:26:42.708Z,97.77
2017-02-13T01:27:23.980Z,98.24
2017-02-13T01:28:06.678Z,97.77
2017-02-13T01:28:47.323Z,97.77
2017-02-13T01:29:28.998Z,98.14
2017-02-13T01:30:09.694Z,97.86
2017-02-13T01:30:50.314Z,97.86
2017-02-13T01:31:30.873Z,97.96
2017-02-13T01:32:17.242Z,97.86
2017-02-13T01:32:58.865Z,97.96
2017-02-13T01:33:39.546Z,98.14
2017-02-13T01:34:20.105Z,97.96
2017-02-13T01:35:00.769Z,97.96
2017-02-13T01:35:48.275Z,98.05
2017-02-13T01:36:28.932Z,98.14
2017-02-13T01:37:09.618Z,98.05
2017-02-13T01:37:50.247Z,98.14
2017-02-13T01:38:32.944Z,98.05
2017-02-13T01:39:13.590Z,98.05
2017-02-13T01:39:55.214Z,97.67
2017-02-13T01:40:36.835Z,97.96
2017-02-13T01:41:17.383Z,98.24
2017-02-13T01:41:58.052Z,97.77
2017-02-13T01:42:38.638Z,98.14
2017-02-13T01:43:19.335Z,98.14
2017-02-13T01:43:59.906Z,97.86
2017-02-13T01:44:40.557Z,98.52
2017-02-13T01:45:21.157Z,97.96
2017-02-13T01:46:02.770Z,97.96
2017-02-13T01:46:43.323Z,97.86
2017-02-13T01:47:23.995Z,98.43
2017-02-13T01:48:05.612Z,97.86
2017-02-13T01:48:47.228Z,97.86
2017-02-13T01:49:27.793Z,97.86
2017-02-13T01:50:08.437Z,97.96
2017-02-13T01:50:49.144Z,97.96
2017-02-13T01:51:34.452Z,97.86
2017-02-13T01:52:15.015Z,97.96
2017-02-13T01:52:57.612Z,98.05
2017-02-13T01:53:38.328Z,97.86
2017-02-13T01:54:19.003Z,98.61
2017-02-13T01:54:59.655Z,97.86
2017-02-13T01:55:41.232Z,97.96
2017-02-13T01:56:21.893Z,97.77
2017-02-13T01:57:02.536Z,97.77
2017-02-13T01:57:43.194Z,97.86
2017-02-13T01:58:28.470Z,97.86
2017-02-13T01:59:09.024Z,97.86
2017-02-13T01:59:49.676Z,97.96
2017-02-13T02:00:30.278Z,97.77
2017-02-13T02:01:15.493Z,97.96
2017-02-13T02:01:56.080Z,97.96
2017-02-13T02:02:37.706Z,98.33
2017-02-13T02:03:18.307Z,98.14
2017-02-13T02:03:58.894Z,97.96
2017-02-13T02:04:39.463Z,97.86
2017-02-13T02:05:21.146Z,98.05
2017-02-13T02:06:02.761Z,98.05
2017-02-13T02:06:43.356Z,98.33
2017-02-13T02:07:23.918Z,98.14
2017-02-13T02:08:04.564Z,98.24
2017-02-13T02:08:45.168Z,98.24
2017-02-13T02:09:25.765Z,98.05
2017-02-13T02:10:07.445Z,98.24
2017-02-13T02:10:48.083Z,97.86
2017-02-13T02:11:28.747Z,98.24
2017-02-13T02:12:09.393Z,97.86
2017-02-13T02:12:50.053Z,98.14
2017-02-13T02:13:30.703Z,98.24
2017-02-13T02:14:11.358Z,98.14
2017-02-13T02:14:51.912Z,97.67
2017-02-13T02:15:32.577Z,98.14
2017-02-13T02:16:13.216Z,98.14
2017-02-13T02:16:53.883Z,98.14
2017-02-13T02:17:34.539Z,97.96
2017-02-13T02:18:15.201Z,98.24
2017-02-13T02:18:55.834Z,97.96
2017-02-13T02:19:37.464Z,97.96
2017-02-13T02:20:19.077Z,98.14
2017-02-13T02:20:59.643Z,98.24
2017-02-13T02:21:40.270Z,98.33
2017-02-13T02:22:20.877Z,97.86
2017-02-13T02:23:01.576Z,98.33
2017-02-13T02:23:42.143Z,98.24
2017-02-13T02:24:23.830Z,98.33
2017-02-13T02:25:04.467Z,98.33
2017-02-13T02:25:46.050Z,98.33
2017-02-13T02:26:27.716Z,98.24
2017-02-13T02:27:08.374Z,98.14
2017-02-13T02:27:49.027Z,98.14
2017-02-13T02:28:29.695Z,98.24
2017-02-13T02:29:10.319Z,98.14
2017-02-13T02:29:50.981Z,98.14
2017-02-13T02:30:31.567Z,98.14
2017-02-13T02:31:13.216Z,97.86
2017-02-13T02:31:53.861Z,98.33
2017-02-13T02:32:34.442Z,98.43
2017-02-13T02:33:15.078Z,98.05
2017-02-13T02:33:57.756Z,98.71
2017-02-13T02:34:39.436Z,97.86
2017-02-13T02:35:20.094Z,98.61
2017-02-13T02:36:01.762Z,98.71
2017-02-13T02:36:43.457Z,98.05
2017-02-13T02:37:24.116Z,98.61
2017-02-13T02:38:04.762Z,98.71
2017-02-13T02:38:45.398Z,98.61
2017-02-13T02:39:25.988Z,98.61
2017-02-13T02:40:07.644Z,98.33
2017-02-13T02:40:48.300Z,97.96
2017-02-13T02:41:28.973Z,98.33
2017-02-13T02:42:09.612Z,98.33
2017-02-13T02:42:50.257Z,97.86
2017-02-13T02:43:30.928Z,98.43
2017-02-13T02:44:11.580Z,98.61
2017-02-13T02:44:52.242Z,98.61
2017-02-13T02:45:32.876Z,98.71
2017-02-13T02:46:14.572Z,98.61
2017-02-13T02:46:55.209Z,98.05
2017-02-13T02:47:35.852Z,98.05
2017-02-13T02:48:18.080Z,98.05
2017-02-13T02:48:59.725Z,98.71
2017-02-13T02:49:41.411Z,98.71
2017-02-13T02:50:23.087Z,98.05
2017-02-13T02:51:03.723Z,97.96
2017-02-13T02:51:44.399Z,98.33
2017-02-13T02:52:25.053Z,97.67
2017-02-13T02:53:05.680Z,98.14
2017-02-13T02:53:46.348Z,98.14
2017-02-13T02:54:27.004Z,98.14
2017-02-13T02:55:07.588Z,98.33
2017-02-13T02:55:48.176Z,98.05
2017-02-13T02:56:28.728Z,98.71
2017-02-13T02:57:09.414Z,98.71
2017-02-13T02:57:51.020Z,98.61
2017-02-13T02:58:32.635Z,98.43
2017-02-13T02:59:13.221Z,98.24
2017-02-13T02:59:54.874Z,98.43
2017-02-13T03:00:35.469Z,98.33
2017-02-13T03:01:16.070Z,97.96
2017-02-13T03:01:56.660Z,98.14
2017-02-13T03:02:37.298Z,98.33
2017-02-13T03:03:17.985Z,97.96
2017-02-13T03:03:58.577Z,97.86
2017-02-13T03:04:39.134Z,98.33
2017-02-13T03:05:24.704Z,98.33
2017-02-13T03:06:05.374Z,98.05
2017-02-13T03:06:46.007Z,98.71
2017-02-13T03:07:27.602Z,98.71
2017-02-13T03:08:10.180Z,98.43
2017-02-13T03:08:52.799Z,97.96
2017-02-13T03:09:33.450Z,98.43
2017-02-13T03:10:15.049Z,98.8
2017-02-13T03:10:57.705Z,98.05
2017-02-13T03:11:38.273Z,98.43
2017-02-13T03:12:20.859Z,98.05
2017-02-13T03:13:01.461Z,98.8
2017-02-13T03:13:42.052Z,98.71
2017-02-13T03:14:22.628Z,98.8
2017-02-13T03:15:04.300Z,98.61
2017-02-13T03:15:44.959Z,98.43
2017-02-13T03:16:25.603Z,98.52
2017-02-13T03:17:06.255Z,98.52
2017-02-13T03:17:46.899Z,98.52
2017-02-13T03:18:27.571Z,98.52
2017-02-13T03:19:08.976Z,98.43
2017-02-13T03:19:50.616Z,98.52
2017-02-13T03:20:31.267Z,98.52
2017-02-13T03:21:11.924Z,98.61
2017-02-13T03:21:53.582Z,98.61
2017-02-13T03:22:34.235Z,98.52
2017-02-13T03:23:14.903Z,98.52
2017-02-13T03:23:55.555Z,98.52
2017-02-13T03:24:36.190Z,98.52
2017-02-13T03:25:16.885Z,98.52
2017-02-13T03:25:58.076Z,98.8
2017-02-13T03:26:38.674Z,98.52
2017-02-13T03:27:25.272Z,98.61
2017-02-13T03:28:05.928Z,98.61
2017-02-13T03:28:46.566Z,98.61
2017-02-13T03:29:27.236Z,98.43
2017-02-13T03:30:09.756Z,98.61
2017-02-13T03:30:50.359Z,98.52
2017-02-13T03:31:30.931Z,98.61
2017-02-13T03:32:11.575Z,98.43
2017-02-13T03:32:52.171Z,98.61
2017-02-13T03:33:32.768Z,98.52
2017-02-13T03:34:13.976Z,98.71
2017-02-13T03:34:54.603Z,98.43
2017-02-13T03:35:35.258Z,98.52
2017-02-13T03:36:16.935Z,98.61
2017-02-13T03:36:57.593Z,98.61
2017-02-13T03:37:38.238Z,98.43
2017-02-13T03:38:18.891Z,98.52
2017-02-13T03:38:59.544Z,98.43
2017-02-13T03:39:41.220Z,98.9
2017-02-13T03:40:23.805Z,98.61
2017-02-13T03:41:04.378Z,98.61
2017-02-13T03:41:45.001Z,98.9
2017-02-13T03:42:25.657Z,98.8
2017-02-13T03:43:06.225Z,98.8
2017-02-13T03:43:46.878Z,98.9
2017-02-13T03:44:27.510Z,98.61
2017-02-13T03:45:08.168Z,98.52
2017-02-13T03:45:48.818Z,98.52
2017-02-13T03:46:30.501Z,98.71
2017-02-13T03:47:11.150Z,98.71
2017-02-13T03:47:51.799Z,98.61
2017-02-13T03:48:32.455Z,98.61
2017-02-13T03:49:14.133Z,98.52
2017-02-13T03:49:54.702Z,98.61
2017-02-13T03:50:35.360Z,98.61
2017-02-13T03:51:15.947Z,98.71
2017-02-13T03:51:57.562Z,98.43
2017-02-13T03:52:38.129Z,98.71
2017-02-13T03:53:18.793Z,98.71
2017-02-13T03:53:59.481Z,98.61
2017-02-13T03:54:40.044Z,98.61
2017-02-13T03:55:20.638Z,98.43
2017-02-13T03:56:01.274Z,98.71
2017-02-13T03:56:41.840Z,98.71
2017-02-13T03:57:22.517Z,98.52
2017-02-13T03:58:04.155Z,98.52
2017-02-13T03:58:44.731Z,98.71
2017-02-13T03:59:25.392Z,98.61
2017-02-13T04:00:06.008Z,98.43
2017-02-13T04:00:46.663Z,98.71
2017-02-13T04:01:27.323Z,98.71
2017-02-13T04:02:07.970Z,98.43
2017-02-13T04:02:48.627Z,98.71
2017-02-13T04:03:29.279Z,98.52
2017-02-13T04:04:09.928Z,98.61
2017-02-13T04:04:50.484Z,98.43
2017-02-13T04:05:31.151Z,98.52
2017-02-13T04:06:12.724Z,98.43
2017-02-13T04:06:54.264Z,98.43
2017-02-13T04:07:35.875Z,98.43
2017-02-13T04:08:16.547Z,98.8
2017-02-13T04:08:57.207Z,98.9
2017-02-13T04:09:37.832Z,98.52
2017-02-13T04:10:18.483Z,98.61
2017-02-13T04:11:03.748Z,98.43
2017-02-13T04:11:44.416Z,98.52
2017-02-13T04:12:26.765Z,98.52
2017-02-13T04:13:07.444Z,98.9
2017-02-13T04:13:48.100Z,98.8
2017-02-13T04:14:28.760Z,98.52
2017-02-13T04:15:09.411Z,98.71
2017-02-13T04:15:50.082Z,98.61
2017-02-13T04:16:31.739Z,98.52
2017-02-13T04:17:12.403Z,98.52
2017-02-13T04:17:54.088Z,98.52
2017-02-13T04:18:35.492Z,98.43
2017-02-13T04:19:16.100Z,98.52
2017-02-13T04:19:56.759Z,98.33
2017-02-13T04:20:37.411Z,98.24
2017-02-13T04:21:18.046Z,98.33
2017-02-13T04:21:58.710Z,98.43
2017-02-13T04:22:39.354Z,98.8
2017-02-13T04:23:20.025Z,98.05
2017-02-13T04:24:00.661Z,98.52
2017-02-13T04:24:41.325Z,98.43
2017-02-13T04:25:21.982Z,98.61
2017-02-13T04:26:02.613Z,98.52
2017-02-13T04:26:43.287Z,98.61
2017-02-13T04:27:23.945Z,98.52
2017-02-13T04:28:04.565Z,98.43
2017-02-13T04:28:46.163Z,98.24
2017-02-13T04:29:26.816Z,98.71
2017-02-13T04:30:07.478Z,98.43
2017-02-13T04:30:48.031Z,98.61
2017-02-13T04:31:28.670Z,98.61
2017-02-13T04:32:09.322Z,98.61
2017-02-13T04:32:49.982Z,98.61
2017-02-13T04:33:30.628Z,98.52
2017-02-13T04:34:11.338Z,98.52
2017-02-13T04:34:53.990Z,98.52
2017-02-13T04:35:34.675Z,98.61
2017-02-13T04:36:15.272Z,98.71
2017-02-13T04:36:55.838Z,98.61
2017-02-13T04:37:36.495Z,98.61
2017-02-13T04:38:18.105Z,98.61
2017-02-13T04:38:58.708Z,98.61
2017-02-13T04:39:39.273Z,98.71
2017-02-13T04:40:19.925Z,98.43
2017-02-13T04:41:00.574Z,98.52
2017-02-13T04:41:41.233Z,98.52
2017-02-13T04:42:22.909Z,98.61
2017-02-13T04:43:03.576Z,98.43
2017-02-13T04:43:45.271Z,98.52
2017-02-13T04:44:25.895Z,98.33
2017-02-13T04:45:06.550Z,98.52
2017-02-13T04:45:47.211Z,98.61
2017-02-13T04:46:27.833Z,98.61
2017-02-13T04:47:08.486Z,98.61
2017-02-13T04:47:50.088Z,98.33
2017-02-13T04:48:31.759Z,98.43
2017-02-13T04:49:13.444Z,98.43
2017-02-13T04:49:55.112Z,98.52
2017-02-13T04:50:35.744Z,98.52
2017-02-13T04:51:16.301Z,98.43
2017-02-13T04:51:56.969Z,98.43
2017-02-13T04:52:37.600Z,98.61
2017-02-13T04:53:18.172Z,98.52
2017-02-13T04:53:58.827Z,98.52
2017-02-13T04:54:39.462Z,98.61
2017-02-13T04:55:20.024Z,98.43
2017-02-13T04:56:00.663Z,98.61
2017-02-13T04:56:41.287Z,98.33
2017-02-13T04:57:23.916Z,98.43
2017-02-13T04:58:04.477Z,98.61
2017-02-13T04:58:45.212Z,98.71
2017-02-13T04:59:26.846Z,98.24
2017-02-13T05:00:08.473Z,98.61
2017-02-13T05:00:49.119Z,98.24
2017-02-13T05:01:29.775Z,98.33
2017-02-13T05:02:10.427Z,98.24
2017-02-13T05:02:51.076Z,98.61
2017-02-13T05:03:31.735Z,98.33
2017-02-13T05:04:12.380Z,98.52
2017-02-13T05:04:52.957Z,98.43
2017-02-13T05:05:33.590Z,98.52
2017-02-13T05:06:14.257Z,98.52
2017-02-13T05:06:54.914Z,98.05
2017-02-13T05:07:35.471Z,98.14
2017-02-13T05:08:18.149Z,98.14
2017-02-13T05:08:58.819Z,98.43
2017-02-13T05:09:39.471Z,98.52
2017-02-13T05:10:20.159Z,98.61
2017-02-13T05:11:01.779Z,98.71
2017-02-13T05:11:42.347Z,98.61
2017-02-13T05:12:23.013Z,98.8
2017-02-13T05:13:04.622Z,98.8
2017-02-13T05:13:45.214Z,98.9
2017-02-13T05:14:25.777Z,98.9
2017-02-13T05:15:08.366Z,98.8
2017-02-13T05:15:48.964Z,98.9
2017-02-13T05:16:29.670Z,98.71
2017-02-13T05:17:10.248Z,99.08
2017-02-13T05:17:50.885Z,98.8
2017-02-13T05:18:31.463Z,99.27
2017-02-13T05:19:12.083Z,98.71
2017-02-13T05:19:52.658Z,98.71
2017-02-13T05:20:33.294Z,99.08
2017-02-13T05:21:14.953Z,98.8
2017-02-13T05:21:55.530Z,98.61
2017-02-13T05:22:36.178Z,98.9
2017-02-13T05:23:17.829Z,98.9
2017-02-13T05:23:58.425Z,98.9
2017-02-13T05:24:39.056Z,98.61
2017-02-13T05:25:19.691Z,98.61
2017-02-13T05:26:01.371Z,98.8
2017-02-13T05:26:42.020Z,98.8
2017-02-13T05:27:22.675Z,98.9
2017-02-13T05:28:03.318Z,98.8
2017-02-13T05:28:43.973Z,98.9
2017-02-13T05:29:24.634Z,98.9
2017-02-13T05:30:05.277Z,98.8
2017-02-13T05:30:46.961Z,98.9
2017-02-13T05:31:27.608Z,98.9
2017-02-13T05:32:08.267Z,98.71
2017-02-13T05:32:48.911Z,98.8
2017-02-13T05:33:29.570Z,98.8
2017-02-13T05:34:10.220Z,98.9
2017-02-13T05:34:50.796Z,98.8
2017-02-13T05:35:31.446Z,98.8
2017-02-13T05:36:13.123Z,98.8
2017-02-13T05:36:53.774Z,98.9
2017-02-13T05:37:34.441Z,98.9
2017-02-13T05:38:16.045Z,98.9
2017-02-13T05:38:58.656Z,99.27
2017-02-13T05:39:40.313Z,98.9
2017-02-13T05:40:25.761Z,98.8
2017-02-13T05:41:06.398Z,99.08
2017-02-13T05:41:47.051Z,98.8
2017-02-13T05:42:28.722Z,98.71
2017-02-13T05:43:09.382Z,99.08
2017-02-13T05:43:50.032Z,98.71
2017-02-13T05:44:31.713Z,98.71
2017-02-13T05:45:12.360Z,98.8
2017-02-13T05:45:53.010Z,98.8
2017-02-13T05:46:33.672Z,98.43
2017-02-13T05:47:14.316Z,98.8
2017-02-13T05:47:55.991Z,98.9
2017-02-13T05:48:37.568Z,98.9
2017-02-13T05:49:18.227Z,98.9
2017-02-13T05:49:58.872Z,98.9
2017-02-13T05:50:39.535Z,98.8
2017-02-13T05:51:21.205Z,99.08
2017-02-13T05:52:12.746Z,98.9
2017-02-13T05:52:53.380Z,98.99
2017-02-13T05:53:34.019Z,98.9
2017-02-13T05:54:15.691Z,98.8
2017-02-13T05:54:56.355Z,98.8
2017-02-13T05:55:36.989Z,98.71
2017-02-13T05:56:17.546Z,98.9
2017-02-13T05:56:58.204Z,98.9
2017-02-13T05:57:40.795Z,98.9
2017-02-13T05:58:21.350Z,98.9
2017-02-13T05:59:02.011Z,98.9
2017-02-13T05:59:44.582Z,98.9
2017-02-13T06:00:25.152Z,98.9
2017-02-13T06:01:07.120Z,98.52
2017-02-13T06:01:47.780Z,98.61
2017-02-13T06:02:28.351Z,98.9
2017-02-13T06:03:08.989Z,98.99
2017-02-13T06:03:50.650Z,98.9
2017-02-13T06:04:31.245Z,98.9
2017-02-13T06:05:11.892Z,98.71
2017-02-13T06:05:52.531Z,98.71
2017-02-13T06:06:33.183Z,98.61
2017-02-13T06:07:13.835Z,98.61
2017-02-13T06:07:54.524Z,98.52
2017-02-13T06:08:35.136Z,98.71
2017-02-13T06:09:16.831Z,98.61
2017-02-13T06:09:57.493Z,98.9
2017-02-13T06:10:40.107Z,98.9
2017-02-13T06:11:20.712Z,98.71
2017-02-13T06:12:01.279Z,98.9
2017-02-13T06:12:42.956Z,98.9
2017-02-13T06:13:23.536Z,98.71
2017-02-13T06:14:04.148Z,98.71
2017-02-13T06:14:44.727Z,98.71
2017-02-13T06:15:26.381Z,99.08
2017-02-13T06:16:07.047Z,98.9
2017-02-13T06:16:47.697Z,98.9
2017-02-13T06:17:28.348Z,98.52
2017-02-13T06:18:08.990Z,98.61
2017-02-13T06:18:49.644Z,98.8
2017-02-13T06:19:35.223Z,98.71
2017-02-13T06:20:16.821Z,99.18
2017-02-13T06:20:57.427Z,98.8
2017-02-13T06:21:37.987Z,99.08
2017-02-13T06:22:18.659Z,99.08
2017-02-13T06:23:01.287Z,98.71
2017-02-13T06:23:41.886Z,98.9
2017-02-13T06:24:22.461Z,99.08
2017-02-13T06:25:03.105Z,99.18
2017-02-13T06:25:43.784Z,99.08
2017-02-13T06:26:24.387Z,99.08
2017-02-13T06:27:04.979Z,98.9
2017-02-13T06:27:45.615Z,98.8
2017-02-13T06:28:26.204Z,98.8
2017-02-13T06:29:06.801Z,98.99
2017-02-13T06:29:47.365Z,98.99
2017-02-13T06:30:28.015Z,99.18
2017-02-13T06:31:08.612Z,99.27
2017-02-13T06:31:49.200Z,99.18
2017-02-13T06:32:29.765Z,99.08
2017-02-13T06:33:10.436Z,99.08
2017-02-13T06:33:51.126Z,98.9
2017-02-13T06:34:31.711Z,98.99
2017-02-13T06:35:12.368Z,99.18
2017-02-13T06:35:53.023Z,98.99
2017-02-13T06:36:33.669Z,98.71
2017-02-13T06:37:14.330Z,99.37
2017-02-13T06:37:54.984Z,98.8
2017-02-13T06:38:35.640Z,98.71
2017-02-13T06:39:16.283Z,98.71
2017-02-13T06:39:56.868Z,98.71
2017-02-13T06:40:37.554Z,99.37
2017-02-13T06:41:18.217Z,99.75
2017-02-13T06:41:59.826Z,98.71
2017-02-13T06:42:40.402Z,99.37
2017-02-13T06:43:23.097Z,98.9
2017-02-13T06:44:03.850Z,98.71
2017-02-13T06:44:44.405Z,99.75
2017-02-13T06:45:26.001Z,98.99
2017-02-13T06:46:07.627Z,98.99
2017-02-13T06:46:48.192Z,98.71
2017-02-13T06:47:28.849Z,98.71
2017-02-13T06:48:09.440Z,99.75
2017-02-13T06:48:50.037Z,99.37
2017-02-13T06:49:30.587Z,99.08
2017-02-13T06:50:11.312Z,98.8
2017-02-13T06:50:51.951Z,98.9
2017-02-13T06:51:33.569Z,99.08
2017-02-13T06:52:14.158Z,98.99
2017-02-13T06:52:55.810Z,99.08
2017-02-13T06:53:36.396Z,99.18
2017-02-13T06:54:17.000Z,99.18
2017-02-13T06:54:57.570Z,99.08
2017-02-13T06:55:39.249Z,98.99
2017-02-13T06:56:30.429Z,99.18
2017-02-13T06:57:11.004Z,98.99
2017-02-13T06:57:51.674Z,99.08
2017-02-13T06:58:32.284Z,98.99
2017-02-13T06:59:12.862Z,99.08
2017-02-13T06:59:53.512Z,98.9
2017-02-13T07:00:34.148Z,99.18
2017-02-13T07:01:14.797Z,98.9
2017-02-13T07:01:55.445Z,98.8
2017-02-13T07:02:36.097Z,98.9
2017-02-13T07:03:17.774Z,99.27
2017-02-13T07:03:58.425Z,99.08
2017-02-13T07:04:39.081Z,98.99
2017-02-13T07:05:20.755Z,98.71
2017-02-13T07:06:02.438Z,99.08
2017-02-13T07:06:43.088Z,99.27
2017-02-13T07:07:23.740Z,98.8
2017-02-13T07:08:04.391Z,98.8
2017-02-13T07:08:45.046Z,98.9
2017-02-13T07:09:25.702Z,98.9
2017-02-13T07:10:06.253Z,98.9
2017-02-13T07:10:46.927Z,99.08
2017-02-13T07:11:29.561Z,99.08
2017-02-13T07:12:10.157Z,98.9
2017-02-13T07:12:50.724Z,98.9
2017-02-13T07:13:32.411Z,98.9
2017-02-13T07:14:12.996Z,98.9
2017-02-13T07:14:53.584Z,98.99
2017-02-13T07:15:34.240Z,98.9
2017-02-13T07:16:14.889Z,99.08
2017-02-13T07:16:56.557Z,98.99
2017-02-13T07:17:38.247Z,99.08
2017-02-13T07:18:18.903Z,98.95
2017-02-13T07:18:59.550Z,99.18
2017-02-13T07:19:40.204Z,98.71
2017-02-13T07:20:20.796Z,98.61
2017-02-13T07:21:01.432Z,98.9
2017-02-13T07:21:42.001Z,98.99
2017-02-13T07:22:22.556Z,98.71
2017-02-13T07:23:03.363Z,99.08
2017-02-13T07:23:44.014Z,98.9
2017-02-13T07:24:24.575Z,98.52
2017-02-13T07:25:07.246Z,98.71
2017-02-13T07:25:47.832Z,98.52
2017-02-13T07:26:28.493Z,98.8
2017-02-13T07:27:09.152Z,98.76
2017-02-13T07:27:49.861Z,99.14
2017-02-13T07:28:30.447Z,98.95
2017-02-13T07:29:11.110Z,98.95
2017-02-13T07:29:56.264Z,98.85
2017-02-13T07:30:36.845Z,98.95
2017-02-13T07:31:17.448Z,99.04
2017-02-13T07:31:58.023Z,98.95
2017-02-13T07:32:38.675Z,98.95
2017-02-13T07:33:19.362Z,98.95
2017-02-13T07:33:59.956Z,99.14
2017-02-13T07:34:40.533Z,98.85
2017-02-13T07:35:23.118Z,98.95
2017-02-13T07:36:03.762Z,98.76
2017-02-13T07:36:44.327Z,98.38
2017-02-13T07:37:25.997Z,98.1
2017-02-13T07:38:06.633Z,98.47
2017-02-13T07:38:47.242Z,98.38
2017-02-13T07:39:27.867Z,98.38
2017-02-13T07:40:08.496Z,98.66
2017-02-13T07:40:49.136Z,98.57
2017-02-13T07:41:29.804Z,98.47
2017-02-13T07:42:10.460Z,98.57
2017-02-13T07:42:51.112Z,98.66
2017-02-13T07:43:36.476Z,98.66
2017-02-13T07:44:17.122Z,98.47
2017-02-13T07:44:57.776Z,98.57
2017-02-13T07:45:43.662Z,98.95
2017-02-13T07:46:23.581Z,98.1
2017-02-13T07:47:06.180Z,98.47
2017-02-13T07:47:46.840Z,98.28
2017-02-13T07:48:27.502Z,98
2017-02-13T07:49:09.163Z,98.28
2017-02-13T07:49:49.817Z,98.28
2017-02-13T07:50:30.368Z,97.91
2017-02-13T07:51:12.071Z,98.19
2017-02-13T07:51:53.620Z,98.19
2017-02-13T07:52:34.192Z,98.1
2017-02-13T07:53:19.757Z,98.1
2017-02-13T07:54:00.394Z,98.1
2017-02-13T07:54:40.981Z,98.47
2017-02-13T07:55:21.626Z,98.47
2017-02-13T07:56:02.265Z,97.91
2017-02-13T07:56:42.905Z,98
2017-02-13T07:57:23.572Z,97.91
2017-02-13T07:58:04.595Z,97.81
2017-02-13T07:58:45.211Z,98.66
2017-02-13T07:59:25.859Z,98
2017-02-13T08:00:07.514Z,98
2017-02-13T08:00:48.106Z,98.1
2017-02-13T08:01:28.703Z,98.19
2017-02-13T08:02:09.277Z,98
2017-02-13T08:02:51.864Z,97.91
2017-02-13T08:03:32.458Z,97.81
2017-02-13T08:04:13.048Z,98.19
2017-02-13T08:04:53.607Z,98.1
2017-02-13T08:05:34.272Z,98.1
2017-02-13T08:06:14.945Z,98.1
2017-02-13T08:06:55.579Z,98.19
2017-02-13T08:07:36.241Z,98.19
2017-02-13T08:08:16.883Z,98.1
2017-02-13T08:08:57.535Z,97.63
2017-02-13T08:09:38.288Z,97.91
2017-02-13T08:10:18.850Z,97.63
2017-02-13T08:11:00.513Z,97.91
2017-02-13T08:11:41.087Z,97.81
2017-02-13T08:12:21.724Z,97.81
2017-02-13T08:13:02.375Z,97.72
2017-02-13T08:13:42.947Z,97.34
2017-02-13T08:14:24.621Z,97.06
2017-02-13T08:15:09.960Z,97.34
2017-02-13T08:15:50.561Z,97.34
2017-02-13T08:16:32.206Z,97.25
2017-02-13T08:17:12.847Z,97.81
2017-02-13T08:17:53.502Z,97.44
2017-02-13T08:18:34.178Z,97.34
2017-02-13T08:19:14.808Z,97.06
2017-02-13T08:19:55.443Z,96.96
2017-02-13T08:20:38.075Z,97.34
2017-02-13T08:21:19.680Z,97.06
2017-02-13T08:22:00.272Z,96.96
2017-02-13T08:22:40.834Z,97.39
2017-02-13T08:23:21.508Z,97.2
2017-02-13T08:24:04.136Z,97.01
2017-02-13T08:24:44.821Z,96.83
2017-02-13T08:25:25.371Z,96.64
2017-02-13T08:26:06.998Z,96.64
2017-02-13T08:26:48.584Z,97.01
2017-02-13T08:27:30.212Z,96.64
2017-02-13T08:28:10.769Z,97.01
2017-02-13T08:28:53.390Z,97.01
2017-02-13T08:29:35.012Z,96.54
2017-02-13T08:30:16.632Z,96.64
2017-02-13T08:30:57.190Z,96.73
2017-02-13T08:31:38.842Z,96.07
2017-02-13T08:32:20.450Z,96.26
2017-02-13T08:33:02.116Z,95.97
2017-02-13T08:33:42.755Z,95.97
2017-02-13T08:34:23.424Z,96.07
2017-02-13T08:35:04.073Z,96.26
2017-02-13T08:35:49.588Z,96.26
2017-02-13T08:36:30.177Z,95.69
2017-02-13T08:37:10.722Z,95.59
2017-02-13T08:37:56.294Z,95.88
2017-02-13T08:38:36.902Z,95.78
2017-02-13T08:39:18.522Z,95.78
2017-02-13T08:39:59.149Z,95.88
2017-02-13T08:40:41.789Z,96.07
2017-02-13T08:41:22.423Z,95.78
2017-02-13T08:42:02.971Z,95.5
2017-02-13T08:42:44.580Z,95.31
2017-02-13T08:43:25.199Z,95.4
2017-02-13T08:44:05.786Z,95.69
2017-02-13T08:44:47.436Z,95.5
2017-02-13T08:45:28.099Z,95.12
2017-02-13T08:46:08.671Z,95.21
2017-02-13T08:46:49.292Z,95.4
2017-02-13T08:47:29.897Z,95.21
2017-02-13T08:48:12.532Z,94.84
2017-02-13T08:48:53.171Z,94.56
2017-02-13T08:49:34.783Z,94.65
2017-02-13T08:50:15.400Z,94.84
2017-02-13T08:51:01.881Z,94.18
2017-02-13T08:51:42.436Z,94.93
2017-02-13T08:52:27.743Z,94.37